Time;durP1;ratioP1;P1;durP2;ratioP2;P2;SDS_P1;SDS_P2;PMS_P1;PMS_P2;Temp;Humidity;BMP_temperature;BMP_pressure;BME280_temperature;BME280_humidity;BME280_pressure;Samples;Min_cycle;Max_cycle;Signal;HPM_P1;HPM_P2
2023/12/05 00:01:40;;;;;;;;;;;;;;;;;;5006616;28;128924;-72
2023/12/05 00:04:06;;;;;;;;;;;;;;;;;;5003662;28;130279;-72
2023/12/05 00:06:33;;;;;;;;;;;;;;;;;;5006370;28;126231;-71
2023/12/05 00:08:59;;;;;;;;;;;;;;;;;;5008582;28;129443;-72
2023/12/05 00:11:27;;;;;;;;;;;;;;;;;;5007276;28;130158;-71
2023/12/05 00:13:53;;;;;;;;;;;;;;;;;;5007618;28;128945;-71
2023/12/05 00:16:20;;;;;;;;;;;;;;;;;;5007984;28;130263;-73
2023/12/05 00:18:49;;;;;;;;;;;;;;;;;;5004552;28;123227;-71
2023/12/05 00:21:16;;;;;;;;;;;;;;;;;;5006876;28;129968;-71
2023/12/05 00:23:42;;;;;;;;;;;;;;;;;;5004424;28;128247;-71
2023/12/05 00:26:08;;;;;;;;;;;;;;;;;;5005563;28;122985;-70
2023/12/05 00:28:35;;;;;;;;;;;;;;;;;;5005522;28;129026;-72
2023/12/05 00:31:01;;;;;;;;;;;;;;;;;;5005297;28;129601;-72
2023/12/05 00:33:27;;;;;;;;;;;;;;;;;;5008834;28;122061;-71
2023/12/05 00:35:54;;;;;;;;;;;;;;;;;;5006964;28;130165;-72
2023/12/05 00:38:20;;;;;;;;;;;;;;;;;;5006535;28;122468;-71
2023/12/05 00:40:46;;;;;;;;;;;;;;;;;;5006300;28;128980;-72
2023/12/05 00:43:13;;;;;;;;;;;;;;;;;;5006433;28;129883;-72
2023/12/05 00:45:39;;;;;;;;;;;;;;;;;;5005608;28;123784;-72
2023/12/05 00:48:05;;;;;;;;;;;;;;;;;;5004652;28;123789;-72
2023/12/05 00:50:32;;;;;;;;;;;;;;;;;;5017736;28;129453;-72
2023/12/05 00:53:04;;;;;;;;;;;;;;;;;;5002836;28;121400;-72
2023/12/05 00:55:31;;;;;;;;;;;;;;;;;;5010022;28;128965;-72
2023/12/05 00:57:57;;;;;;;;;;;;;;;;;;5007573;28;122708;-71
2023/12/05 01:00:23;;;;;;;;;;;;;;;;;;5009552;28;128230;-71
2023/12/05 01:02:50;;;;;;;;;;;;;;;;;;5010277;28;129540;-71
2023/12/05 01:05:16;;;;;;;;;;;;;;;;;;5010441;28;123015;-73
2023/12/05 01:07:43;;;;;;;;;;;;;;;;;;5010909;28;117298;-71
2023/12/05 01:10:09;;;;;;;;;;;;;;;;;;5010050;28;130626;-71
2023/12/05 01:12:36;;;;;;;;;;;;;;;;;;5009805;28;119185;-72
2023/12/05 01:15:02;;;;;;;;;;;;;;;;;;5013778;28;129040;-71
2023/12/05 01:17:29;;;;;;;;;;;;;;;;;;5009350;28;121641;-72
2023/12/05 01:19:56;;;;;;;;;;;;;;;;;;5009415;28;130043;-73
2023/12/05 01:22:22;;;;;;;;;;;;;;;;;;5009843;28;129449;-72
2023/12/05 01:24:48;;;;;;;;;;;;;;;;;;5006843;28;123796;-72
2023/12/05 01:27:15;;;;;;;;;;;;;;;;;;5007890;28;128898;-72
2023/12/05 01:29:42;;;;;;;;;;;;;;;;;;5007460;28;111795;-72
2023/12/05 01:32:08;;;;;;;;;;;;;;;;;;5008829;28;122607;-72
2023/12/05 01:34:35;;;;;;;;;;;;;;;;;;5006427;28;129740;-71
2023/12/05 01:37:01;;;;;;;;;;;;;;;;;;5010786;28;118628;-72
2023/12/05 01:39:27;;;;;;;;;;;;;;;;;;5008328;28;129962;-71
2023/12/05 01:41:54;;;;;;;;;;;;;;;;;;5008855;28;130629;-71
2023/12/05 01:44:20;;;;;;;;;;;;;;;;;;5008513;28;125412;-71
2023/12/05 01:46:46;;;;;;;;;;;;;;;;;;5010770;28;128451;-72
2023/12/05 01:49:12;;;;;;;;;;;;;;;;;;5007614;28;130070;-72
2023/12/05 01:51:43;;;;;;;;;;;;;;;;;;5006539;28;122910;-72
2023/12/05 01:54:10;;;;;;;;;;;;;;;;;;5007360;28;129159;-69
2023/12/05 01:56:36;;;;;;;;;;;;;;;;;;5007536;28;129438;-72
2023/12/05 01:59:02;;;;;;;;;;;;;;;;;;5015740;28;123165;-72
2023/12/05 02:01:29;;;;;;;;;;;;;;;;;;5009290;28;100867;-72
2023/12/05 02:03:55;;;;;;;;;;;;;;;;;;5006642;28;121694;-71
2023/12/05 02:06:22;;;;;;;;;;;;;;;;;;5005520;28;127678;-71
2023/12/05 02:08:49;;;;;;;;;;;;;;;;;;5004884;28;130000;-71
2023/12/05 02:11:15;;;;;;;;;;;;;;;;;;5007991;28;123142;-71
2023/12/05 02:13:43;;;;;;;;;;;;;;;;;;5006230;28;129063;-73
2023/12/05 02:16:09;;;;;;;;;;;;;;;;;;5004727;28;129680;-71
2023/12/05 02:18:36;;;;;;;;;;;;;;;;;;5005476;28;113646;-71
2023/12/05 02:21:02;;;;;;;;;;;;;;;;;;5009620;28;128924;-71
2023/12/05 02:23:28;;;;;;;;;;;;;;;;;;5007214;28;123195;-71
2023/12/05 02:25:55;;;;;;;;;;;;;;;;;;4997688;28;129022;-71
2023/12/05 02:28:21;;;;;;;;;;;;;;;;;;5004652;28;127321;-71
2023/12/05 02:30:48;;;;;;;;;;;;;;;;;;4991099;28;123047;-71
2023/12/05 02:33:14;;;;;;;;;;;;;;;;;;5009417;28;123562;-72
2023/12/05 02:35:41;;;;;;;;;;;;;;;;;;5007868;28;129577;-71
2023/12/05 02:38:07;;;;;;;;;;;;;;;;;;5006928;28;123022;-72
2023/12/05 02:40:34;;;;;;;;;;;;;;;;;;5006635;28;128999;-72
2023/12/05 02:43:00;;;;;;;;;;;;;;;;;;5010176;28;126934;-71
2023/12/05 02:45:27;;;;;;;;;;;;;;;;;;5007695;28;129748;-72
2023/12/05 02:47:53;;;;;;;;;;;;;;;;;;5007899;28;128199;-72
2023/12/05 02:50:20;;;;;;;;;;;;;;;;;;5006920;28;120198;-72
2023/12/05 02:52:46;;;;;;;;;;;;;;;;;;5006850;28;128948;-72
2023/12/05 02:55:12;;;;;;;;;;;;;;;;;;5007504;28;128306;-71
2023/12/05 02:57:39;;;;;;;;;;;;;;;;;;5008769;28;114319;-71
2023/12/05 03:00:06;;;;;;;;;;;;;;;;;;5006606;28;128940;-72
2023/12/05 03:02:32;;;;;;;;;;;;;;;;;;5005885;28;129170;-72
2023/12/05 03:04:59;;;;;;;;;;;;;;;;;;5012022;28;117517;-71
2023/12/05 03:07:25;;;;;;;;;;;;;;;;;;5008125;28;129650;-72
2023/12/05 03:09:51;;;;;;;;;;;;;;;;;;5009602;28;122433;-71
2023/12/05 03:12:17;;;;;;;;;;;;;;;;;;5006597;28;129939;-71
2023/12/05 03:14:44;;;;;;;;;;;;;;;;;;5006746;28;130202;-71
2023/12/05 03:17:10;;;;;;;;;;;;;;;;;;5007256;28;114200;-72
2023/12/05 03:19:36;;;;;;;;;;;;;;;;;;5004544;28;128676;-71
2023/12/05 03:22:03;;;;;;;;;;;;;;;;;;5003861;28;130298;-72
2023/12/05 03:24:29;;;;;;;;;;;;;;;;;;5012099;28;122860;-72
2023/12/05 03:26:56;;;;;;;;;;;;;;;;;;4997316;28;130402;-73
2023/12/05 03:29:22;;;;;;;;;;;;;;;;;;5006118;28;123023;-71
2023/12/05 03:31:48;;;;;;;;;;;;;;;;;;5006982;28;129886;-73
2023/12/05 03:34:15;;;;;;;;;;;;;;;;;;5004995;28;126240;-72
2023/12/05 03:36:41;;;;;;;;;;;;;;;;;;5005979;28;122204;-71
2023/12/05 03:39:08;;;;;;;;;;;;;;;;;;5007811;28;129007;-72
2023/12/05 03:41:35;;;;;;;;;;;;;;;;;;5026320;28;128889;-71
2023/12/05 03:44:01;;;;;;;;;;;;;;;;;;5007961;28;123267;-72
2023/12/05 03:46:27;;;;;;;;;;;;;;;;;;5009552;28;129143;-72
2023/12/05 03:48:54;;;;;;;;;;;;;;;;;;5006219;28;123185;-72
2023/12/05 03:51:20;;;;;;;;;;;;;;;;;;5007845;28;127119;-71
2023/12/05 03:53:46;;;;;;;;;;;;;;;;;;5007820;28;129487;-72
2023/12/05 03:56:13;;;;;;;;;;;;;;;;;;5007125;28;121954;-71
2023/12/05 03:58:39;;;;;;;;;;;;;;;;;;5008015;28;129653;-72
2023/12/05 04:01:05;;;;;;;;;;;;;;;;;;5006323;28;129435;-72
2023/12/05 04:03:32;;;;;;;;;;;;;;;;;;5004725;28;122432;-72
2023/12/05 04:05:58;;;;;;;;;;;;;;;;;;5007824;28;126091;-72
2023/12/05 04:08:24;;;;;;;;;;;;;;;;;;5008039;28;129638;-72
2023/12/05 04:10:51;;;;;;;;;;;;;;;;;;5005725;28;122013;-71
2023/12/05 04:13:17;;;;;;;;;;;;;;;;;;5003075;28;129451;-72
2023/12/05 04:15:43;;;;;;;;;;;;;;;;;;5004856;28;121238;-73
2023/12/05 04:18:10;;;;;;;;;;;;;;;;;;5007189;28;129859;-72
2023/12/05 04:20:36;;;;;;;;;;;;;;;;;;5003528;28;129790;-72
2023/12/05 04:23:03;;;;;;;;;;;;;;;;;;5003723;28;123974;-72
2023/12/05 04:25:29;;;;;;;;;;;;;;;;;;5005909;28;128459;-72
2023/12/05 04:27:55;;;;;;;;;;;;;;;;;;5006182;28;129445;-71
2023/12/05 04:30:22;;;;;;;;;;;;;;;;;;5009600;28;123083;-72
2023/12/05 04:32:48;;;;;;;;;;;;;;;;;;5009566;27;129478;-72
2023/12/05 04:35:15;;;;;;;;;;;;;;;;;;5011035;28;113809;-72
2023/12/05 04:37:41;;;;;;;;;;;;;;;;;;5009041;28;128904;-72
2023/12/05 04:40:08;;;;;;;;;;;;;;;;;;5010551;28;126514;-72
2023/12/05 04:42:34;;;;;;;;;;;;;;;;;;5006495;28;122670;-72
2023/12/05 04:45:01;;;;;;;;;;;;;;;;;;5006767;28;125243;-71
2023/12/05 04:47:29;;;;;;;;;;;;;;;;;;5015779;28;129567;-71
2023/12/05 04:49:55;;;;;;;;;;;;;;;;;;5008725;28;123037;-71
2023/12/05 04:52:22;;;;;;;;;;;;;;;;;;5012936;28;129038;-71
2023/12/05 04:54:48;;;;;;;;;;;;;;;;;;5009526;28;123365;-71
2023/12/05 04:57:14;;;;;;;;;;;;;;;;;;5009641;28;128863;-70
2023/12/05 04:59:41;;;;;;;;;;;;;;;;;;5007398;28;129441;-72
2023/12/05 05:02:07;;;;;;;;;;;;;;;;;;4999177;28;123019;-72
2023/12/05 05:04:33;;;;;;;;;;;;;;;;;;5009691;28;129082;-72
2023/12/05 05:07:00;;;;;;;;;;;;;;;;;;5006182;28;129396;-71
2023/12/05 05:09:26;;;;;;;;;;;;;;;;;;5009071;28;123249;-71
2023/12/05 05:11:53;;;;;;;;;;;;;;;;;;5008463;28;129238;-71
2023/12/05 05:14:19;;;;;;;;;;;;;;;;;;5012559;28;99321;-71
2023/12/05 05:16:45;;;;;;;;;;;;;;;;;;5007136;28;128361;-72
2023/12/05 05:19:12;;;;;;;;;;;;;;;;;;5007650;28;129410;-71
2023/12/05 05:21:38;;;;;;;;;;;;;;;;;;5007703;28;122972;-72
2023/12/05 05:24:04;;;;;;;;;;;;;;;;;;5008706;28;128922;-72
2023/12/05 05:26:31;;;;;;;;;;;;;;;;;;4999341;28;130273;-72
2023/12/05 05:28:57;;;;;;;;;;;;;;;;;;5008038;28;123247;-72
2023/12/05 05:31:24;;;;;;;;;;;;;;;;;;5007896;28;129178;-71
2023/12/05 05:33:50;;;;;;;;;;;;;;;;;;5009308;28;127376;-73
2023/12/05 05:36:16;;;;;;;;;;;;;;;;;;5009297;27;98462;-72
2023/12/05 05:38:43;;;;;;;;;;;;;;;;;;5006555;28;129381;-72
2023/12/05 05:41:10;;;;;;;;;;;;;;;;;;5009029;28;118707;-72
2023/12/05 05:43:36;;;;;;;;;;;;;;;;;;5007478;28;127227;-72
2023/12/05 05:46:02;;;;;;;;;;;;;;;;;;5006278;28;128089;-72
2023/12/05 05:48:29;;;;;;;;;;;;;;;;;;5005821;28;124267;-72
2023/12/05 05:50:55;;;;;;;;;;;;;;;;;;5009009;28;100028;-72
2023/12/05 05:53:21;;;;;;;;;;;;;;;;;;5005159;28;129770;-72
2023/12/05 05:55:48;;;;;;;;;;;;;;;;;;5011927;28;118247;-72
2023/12/05 05:58:14;;;;;;;;;;;;;;;;;;5006057;28;130095;-71
2023/12/05 06:00:41;;;;;;;;;;;;;;;;;;5006185;28;123875;-72
2023/12/05 06:03:07;;;;;;;;;;;;;;;;;;5007890;28;129347;-72
2023/12/05 06:05:34;;;;;;;;;;;;;;;;;;5007595;27;112157;-71
2023/12/05 06:08:00;;;;;;;;;;;;;;;;;;5005812;28;112389;-71
2023/12/05 06:10:27;;;;;;;;;;;;;;;;;;5005969;28;129880;-72
2023/12/05 06:12:53;;;;;;;;;;;;;;;;;;5014930;28;130071;-71
2023/12/05 06:15:20;;;;;;;;;;;;;;;;;;5028390;28;123862;-71
2023/12/05 06:17:46;;;;;;;;;;;;;;;;;;5014676;28;121797;-72
2023/12/05 06:20:12;;;;;;;;;;;;;;;;;;5009328;28;115269;-71
2023/12/05 06:22:39;;;;;;;;;;;;;;;;;;5008511;28;124927;-71
2023/12/05 06:25:05;;;;;;;;;;;;;;;;;;5003902;28;129373;-72
2023/12/05 06:27:32;;;;;;;;;;;;;;;;;;4989583;28;121899;-72
2023/12/05 06:29:58;;;;;;;;;;;;;;;;;;5012665;28;128946;-72
2023/12/05 06:32:32;;;;;;;;;;;;;;;;;;5029229;27;128960;-71
2023/12/05 06:34:59;;;;;;;;;;;;;;;;;;5028631;28;123021;-71
2023/12/05 06:37:25;;;;;;;;;;;;;;;;;;5024857;27;129039;-71
2023/12/05 06:39:52;;;;;;;;;;;;;;;;;;5012284;28;129304;-71
2023/12/05 06:42:18;;;;;;;;;;;;;;;;;;5008928;28;123846;-71
2023/12/05 06:44:45;;;;;;;;;;;;;;;;;;5007894;28;128165;-72
2023/12/05 06:47:11;;;;;;;;;;;;;;;;;;5016597;28;123080;-72
2023/12/05 06:49:38;;;;;;;;;;;;;;;;;;5029575;28;116658;-71
2023/12/05 06:52:07;;;;;;;;;;;;;;;;;;5027948;28;129420;-71
2023/12/05 06:54:33;;;;;;;;;;;;;;;;;;5028927;28;120982;-71
2023/12/05 06:56:59;;;;;;;;;;;;;;;;;;5028073;27;119260;-70
2023/12/05 06:59:26;;;;;;;;;;;;;;;;;;5027253;28;120903;-70
2023/12/05 07:01:52;;;;;;;;;;;;;;;;;;5016986;28;123923;-71
2023/12/05 07:04:18;;;;;;;;;;;;;;;;;;5006093;28;129514;-71
2023/12/05 07:06:45;;;;;;;;;;;;;;;;;;5008659;28;123130;-72
2023/12/05 07:09:12;;;;;;;;;;;;;;;;;;5008554;28;128942;-71
2023/12/05 07:11:38;;;;;;;;;;;;;;;;;;5006822;28;129478;-71
2023/12/05 07:14:05;;;;;;;;;;;;;;;;;;5008539;28;108506;-71
2023/12/05 07:16:31;;;;;;;;;;;;;;;;;;5003708;28;124014;-71
2023/12/05 07:18:57;;;;;;;;;;;;;;;;;;5007522;28;129680;-71
2023/12/05 07:21:24;;;;;;;;;;;;;;;;;;5011493;28;122771;-72
2023/12/05 07:23:50;;;;;;;;;;;;;;;;;;5007592;28;129872;-72
2023/12/05 07:26:24;;;;;;;;;;;;;;;;;;4992971;28;99000;-72
2023/12/05 07:28:50;;;;;;;;;;;;;;;;;;4988368;28;128898;-72
2023/12/05 07:31:16;;;;;;;;;;;;;;;;;;5001689;28;124523;-71
2023/12/05 07:33:44;;;;;;;;;;;;;;;;;;5001257;28;123073;-71
2023/12/05 07:36:11;;;;;;;;;;;;;;;;;;5006514;28;129236;-71
2023/12/05 07:38:37;;;;;;;;;;;;;;;;;;5008346;28;129386;-72
2023/12/05 07:41:03;;;;;;;;;;;;;;;;;;4990350;28;123449;-72
2023/12/05 07:43:30;;;;;;;;;;;;;;;;;;4991032;28;128568;-72
2023/12/05 07:45:56;;;;;;;;;;;;;;;;;;4994465;28;123513;-72
2023/12/05 07:48:23;;;;;;;;;;;;;;;;;;5005490;28;128989;-72
2023/12/05 07:50:49;;;;;;;;;;;;;;;;;;5007613;28;129438;-71
2023/12/05 07:53:15;;;;;;;;;;;;;;;;;;5007536;28;117400;-73
2023/12/05 07:55:42;;;;;;;;;;;;;;;;;;5007331;28;129061;-72
2023/12/05 07:58:08;;;;;;;;;;;;;;;;;;5007562;28;124490;-72
2023/12/05 08:00:38;;;;;;;;;;;;;;;;;;5006833;28;123809;-72
2023/12/05 08:03:05;;;;;;;;;;;;;;;;;;4993231;28;128977;-72
2023/12/05 08:05:32;;;;;;;;;;;;;;;;;;5009788;28;129540;-71
2023/12/05 08:07:58;;;;;;;;;;;;;;;;;;5005282;28;129852;-71
2023/12/05 08:10:24;;;;;;;;;;;;;;;;;;5007084;28;129595;-71
2023/12/05 08:12:51;;;;;;;;;;;;;;;;;;5006046;28;123027;-73
2023/12/05 08:15:18;;;;;;;;;;;;;;;;;;5006363;28;125336;-72
2023/12/05 08:17:47;;;;;;;;;;;;;;;;;;5004692;28;129499;-72
2023/12/05 08:20:13;;;;;;;;;;;;;;;;;;5007224;28;123791;-73
2023/12/05 08:22:40;;;;;;;;;;;;;;;;;;5003414;28;129014;-72
2023/12/05 08:25:08;;;;;;;;;;;;;;;;;;5006979;28;129393;-73
2023/12/05 08:27:35;;;;;;;;;;;;;;;;;;5010542;28;123863;-73
2023/12/05 08:30:02;;;;;;;;;;;;;;;;;;5006881;28;130825;-72
2023/12/05 08:32:29;;;;;;;;;;;;;;;;;;5008466;28;98191;-72
2023/12/05 08:34:55;;;;;;;;;;;;;;;;;;5007429;28;128947;-71
2023/12/05 08:37:23;;;;;;;;;;;;;;;;;;5005484;28;129198;-72
2023/12/05 08:39:49;;;;;;;;;;;;;;;;;;5004295;28;125476;-72
2023/12/05 08:42:15;;;;;;;;;;;;;;;;;;5006751;28;129675;-72
2023/12/05 08:44:42;;;;;;;;;;;;;;;;;;5005195;28;128489;-72
2023/12/05 08:47:08;;;;;;;;;;;;;;;;;;5009106;28;117423;-71
2023/12/05 08:49:34;;;;;;;;;;;;;;;;;;5010454;28;129483;-71
2023/12/05 08:52:01;;;;;;;;;;;;;;;;;;5004803;28;122926;-72
2023/12/05 08:54:27;;;;;;;;;;;;;;;;;;5004335;28;128884;-72
2023/12/05 08:56:53;;;;;;;;;;;;;;;;;;5005285;28;128077;-72
2023/12/05 08:59:20;;;;;;;;;;;;;;;;;;5006952;28;123002;-73
2023/12/05 09:01:47;;;;;;;;;;;;;;;;;;5006103;28;128813;-72
2023/12/05 09:04:13;;;;;;;;;;;;;;;;;;5005471;28;130202;-72
2023/12/05 09:06:39;;;;;;;;;;;;;;;;;;5005797;28;122661;-72
2023/12/05 09:09:06;;;;;;;;;;;;;;;;;;5006421;28;129820;-73
2023/12/05 09:11:32;;;;;;;;;;;;;;;;;;5006799;28;127294;-72
2023/12/05 09:13:59;;;;;;;;;;;;;;;;;;4999244;28;129732;-72
2023/12/05 09:16:25;;;;;;;;;;;;;;;;;;5004514;28;129472;-72
2023/12/05 09:18:52;;;;;;;;;;;;;;;;;;4995039;28;122353;-72
2023/12/05 09:21:18;;;;;;;;;;;;;;;;;;5001454;28;128969;-72
2023/12/05 09:23:44;;;;;;;;;;;;;;;;;;5010393;28;126383;-72
2023/12/05 09:26:11;;;;;;;;;;;;;;;;;;5002166;28;121576;-73
2023/12/05 09:28:37;;;;;;;;;;;;;;;;;;5006768;28;126196;-72
2023/12/05 09:31:04;;;;;;;;;;;;;;;;;;5013851;28;129480;-72
2023/12/05 09:33:30;;;;;;;;;;;;;;;;;;5008607;28;127368;-72
2023/12/05 09:35:57;;;;;;;;;;;;;;;;;;5006385;28;128898;-72
2023/12/05 09:38:23;;;;;;;;;;;;;;;;;;5002157;28;123807;-72
2023/12/05 09:40:49;;;;;;;;;;;;;;;;;;4988423;28;129160;-73
2023/12/05 09:43:15;;;;;;;;;;;;;;;;;;4998670;28;125104;-72
2023/12/05 09:45:43;;;;;;;;;;;;;;;;;;4991773;28;120158;-72
2023/12/05 09:48:10;;;;;;;;;;;;;;;;;;5003616;28;113089;-71
2023/12/05 09:50:36;;;;;;;;;;;;;;;;;;5006388;28;130054;-71
2023/12/05 09:53:03;;;;;;;;;;;;;;;;;;5009639;28;125546;-72
2023/12/05 09:55:29;;;;;;;;;;;;;;;;;;4988986;28;125628;-72
2023/12/05 09:57:56;;;;;;;;;;;;;;;;;;5003924;28;123582;-72
2023/12/05 10:00:24;;;;;;;;;;;;;;;;;;5002485;28;128755;-73
2023/12/05 10:02:50;;;;;;;;;;;;;;;;;;4995853;28;129551;-73
2023/12/05 10:05:17;;;;;;;;;;;;;;;;;;5005997;28;118216;-75
2023/12/05 10:07:44;;;;;;;;;;;;;;;;;;5002935;28;129091;-74
2023/12/05 10:10:10;;;;;;;;;;;;;;;;;;5002021;28;129368;-72
2023/12/05 10:12:36;;;;;;;;;;;;;;;;;;5004280;28;125689;-72
2023/12/05 10:15:03;;;;;;;;;;;;;;;;;;5010202;28;129396;-73
2023/12/05 10:17:32;;;;;;;;;;;;;;;;;;5008496;28;122617;-73
2023/12/05 10:19:59;;;;;;;;;;;;;;;;;;5007587;28;129435;-73
2023/12/05 10:22:26;;;;;;;;;;;;;;;;;;5001300;28;130115;-71
2023/12/05 10:24:52;;;;;;;;;;;;;;;;;;4997919;28;123047;-71
2023/12/05 10:27:19;;;;;;;;;;;;;;;;;;5000941;28;129943;-72
2023/12/05 10:29:45;;;;;;;;;;;;;;;;;;5000501;28;129489;-72
2023/12/05 10:32:12;;;;;;;;;;;;;;;;;;4998467;28;122321;-71
2023/12/05 10:34:38;;;;;;;;;;;;;;;;;;5007959;28;129215;-72
2023/12/05 10:37:04;;;;;;;;;;;;;;;;;;5010306;28;129460;-72
2023/12/05 10:39:30;;;;;;;;;;;;;;;;;;5002081;28;120434;-72
2023/12/05 10:41:57;;;;;;;;;;;;;;;;;;4989975;28;129724;-72
2023/12/05 10:44:23;;;;;;;;;;;;;;;;;;4996703;28;101488;-71
2023/12/05 10:46:49;;;;;;;;;;;;;;;;;;4992872;28;128842;-72
2023/12/05 10:49:16;;;;;;;;;;;;;;;;;;5001574;28;129566;-72
2023/12/05 10:51:42;;;;;;;;;;;;;;;;;;5001994;28;124474;-73
2023/12/05 10:54:09;;;;;;;;;;;;;;;;;;4999842;28;129878;-73
2023/12/05 10:56:35;;;;;;;;;;;;;;;;;;4997817;28;130133;-72
2023/12/05 10:59:03;;;;;;;;;;;;;;;;;;5003169;28;123070;-73
2023/12/05 11:01:29;;;;;;;;;;;;;;;;;;5000281;28;126361;-72
2023/12/05 11:04:00;;;;;;;;;;;;;;;;;;4993521;28;122613;-73
2023/12/05 11:06:27;;;;;;;;;;;;;;;;;;4990152;28;129317;-72
2023/12/05 11:08:54;;;;;;;;;;;;;;;;;;4995298;28;129522;-72
2023/12/05 11:11:20;;;;;;;;;;;;;;;;;;4993612;28;123210;-73
2023/12/05 11:13:46;;;;;;;;;;;;;;;;;;4998603;28;124794;-73
2023/12/05 11:16:13;;;;;;;;;;;;;;;;;;4998522;28;117495;-73
2023/12/05 11:18:43;;;;;;;;;;;;;;;;;;5005275;28;121521;-73
2023/12/05 11:21:11;;;;;;;;;;;;;;;;;;5013898;28;128969;-73
2023/12/05 11:23:38;;;;;;;;;;;;;;;;;;5007810;28;117299;-73
2023/12/05 11:26:04;;;;;;;;;;;;;;;;;;5005704;28;124302;-73
2023/12/05 11:28:32;;;;;;;;;;;;;;;;;;4998051;28;118160;-73
2023/12/05 11:30:59;;;;;;;;;;;;;;;;;;4997796;28;111810;-72
2023/12/05 11:33:26;;;;;;;;;;;;;;;;;;5000086;28;126612;-72
2023/12/05 11:35:52;;;;;;;;;;;;;;;;;;4996148;28;129563;-72
2023/12/05 11:38:19;;;;;;;;;;;;;;;;;;5004945;28;98397;-72
2023/12/05 11:40:45;;;;;;;;;;;;;;;;;;5009332;28;129702;-72
2023/12/05 11:43:12;;;;;;;;;;;;;;;;;;5005660;28;121239;-72
2023/12/05 11:45:38;;;;;;;;;;;;;;;;;;5005844;28;126839;-72
2023/12/05 11:48:04;;;;;;;;;;;;;;;;;;4995102;28;128421;-72
2023/12/05 11:50:31;;;;;;;;;;;;;;;;;;5003474;28;123102;-72
2023/12/05 11:52:57;;;;;;;;;;;;;;;;;;5002526;28;129837;-72
2023/12/05 11:55:23;;;;;;;;;;;;;;;;;;5000280;28;129975;-72
2023/12/05 11:57:50;;;;;;;;;;;;;;;;;;4999873;28;125241;-72
2023/12/05 12:00:16;;;;;;;;;;;;;;;;;;5001031;28;128955;-73
2023/12/05 12:02:44;;;;;;;;;;;;;;;;;;4998802;28;127790;-72
2023/12/05 12:05:10;;;;;;;;;;;;;;;;;;4996829;28;128709;-73
2023/12/05 12:07:36;;;;;;;;;;;;;;;;;;5004434;28;129505;-73
2023/12/05 12:10:03;;;;;;;;;;;;;;;;;;5007367;28;123072;-72
2023/12/05 12:12:30;;;;;;;;;;;;;;;;;;5002117;28;129782;-72
2023/12/05 12:14:56;;;;;;;;;;;;;;;;;;4996229;28;128037;-73
2023/12/05 12:17:22;;;;;;;;;;;;;;;;;;4994638;28;123065;-73
2023/12/05 12:19:49;;;;;;;;;;;;;;;;;;5006764;28;129843;-73
2023/12/05 12:22:15;;;;;;;;;;;;;;;;;;5005202;28;129571;-73
2023/12/05 12:24:42;;;;;;;;;;;;;;;;;;5006552;28;123518;-73
2023/12/05 12:27:09;;;;;;;;;;;;;;;;;;4994609;28;130861;-73
2023/12/05 12:29:38;;;;;;;;;;;;;;;;;;5005502;28;121274;-73
2023/12/05 12:32:05;;;;;;;;;;;;;;;;;;4992556;28;128541;-73
2023/12/05 12:34:31;;;;;;;;;;;;;;;;;;4997233;28;129529;-72
2023/12/05 12:36:58;;;;;;;;;;;;;;;;;;4993516;28;121621;-73
2023/12/05 12:39:30;;;;;;;;;;;;;;;;;;4996980;28;129038;-72
2023/12/05 12:41:58;;;;;;;;;;;;;;;;;;4995470;28;130245;-72
2023/12/05 12:44:24;;;;;;;;;;;;;;;;;;4994592;28;125066;-72
2023/12/05 12:46:50;;;;;;;;;;;;;;;;;;5001836;28;129220;-72
2023/12/05 12:49:17;;;;;;;;;;;;;;;;;;4998002;28;121594;-73
2023/12/05 12:51:43;;;;;;;;;;;;;;;;;;4999671;28;129028;-72
2023/12/05 12:54:10;;;;;;;;;;;;;;;;;;4998347;28;122807;-73
2023/12/05 12:56:36;;;;;;;;;;;;;;;;;;5008396;28;123365;-71
2023/12/05 12:59:02;;;;;;;;;;;;;;;;;;5009881;28;129013;-72
2023/12/05 13:01:29;;;;;;;;;;;;;;;;;;5009362;28;99789;-72
2023/12/05 13:03:55;;;;;;;;;;;;;;;;;;4995796;28;123941;-72
2023/12/05 13:06:22;;;;;;;;;;;;;;;;;;5000289;28;129432;-72
2023/12/05 13:08:48;;;;;;;;;;;;;;;;;;5007663;28;129321;-73
2023/12/05 13:11:15;;;;;;;;;;;;;;;;;;4997368;28;128810;-73
2023/12/05 13:13:41;;;;;;;;;;;;;;;;;;4999461;28;128514;-72
2023/12/05 13:16:08;;;;;;;;;;;;;;;;;;5006301;28;123850;-72
2023/12/05 13:18:35;;;;;;;;;;;;;;;;;;5002310;28;129030;-72
2023/12/05 13:21:01;;;;;;;;;;;;;;;;;;4997724;28;130799;-72
2023/12/05 13:23:29;;;;;;;;;;;;;;;;;;4992906;28;123275;-71
2023/12/05 13:25:55;;;;;;;;;;;;;;;;;;4991998;28;129594;-72
2023/12/05 13:28:23;;;;;;;;;;;;;;;;;;5002392;28;123272;-71
2023/12/05 13:30:49;;;;;;;;;;;;;;;;;;5003913;28;123147;-71
2023/12/05 13:33:16;;;;;;;;;;;;;;;;;;5002871;28;128638;-72
2023/12/05 13:35:43;;;;;;;;;;;;;;;;;;4997391;28;123774;-72
2023/12/05 13:38:09;;;;;;;;;;;;;;;;;;5005680;28;129032;-72
2023/12/05 13:40:36;;;;;;;;;;;;;;;;;;4997786;28;113940;-71
2023/12/05 13:43:02;;;;;;;;;;;;;;;;;;4990683;28;118932;-72
2023/12/05 13:45:28;;;;;;;;;;;;;;;;;;5004076;28;129452;-73
2023/12/05 13:47:55;;;;;;;;;;;;;;;;;;5008143;28;130365;-72
2023/12/05 13:50:21;;;;;;;;;;;;;;;;;;5010518;28;122333;-73
2023/12/05 13:52:48;;;;;;;;;;;;;;;;;;5008181;28;126955;-71
2023/12/05 13:55:14;;;;;;;;;;;;;;;;;;5008113;28;122617;-73
2023/12/05 13:57:41;;;;;;;;;;;;;;;;;;5009084;28;127897;-73
2023/12/05 14:00:08;;;;;;;;;;;;;;;;;;5008825;28;100089;-73
2023/12/05 14:02:34;;;;;;;;;;;;;;;;;;5008630;28;122467;-73
2023/12/05 14:05:00;;;;;;;;;;;;;;;;;;5008132;28;129329;-74
2023/12/05 14:07:27;;;;;;;;;;;;;;;;;;5007316;28;129147;-72
2023/12/05 14:09:53;;;;;;;;;;;;;;;;;;5009108;28;123257;-72
2023/12/05 14:12:20;;;;;;;;;;;;;;;;;;5011277;28;129036;-72
2023/12/05 14:14:47;;;;;;;;;;;;;;;;;;5007758;28;122332;-73
2023/12/05 14:17:14;;;;;;;;;;;;;;;;;;5008218;28;129892;-73
2023/12/05 14:19:41;;;;;;;;;;;;;;;;;;4995832;28;129276;-72
2023/12/05 14:22:07;;;;;;;;;;;;;;;;;;5004137;28;125633;-72
2023/12/05 14:24:34;;;;;;;;;;;;;;;;;;5003349;28;128794;-72
2023/12/05 14:27:00;;;;;;;;;;;;;;;;;;4999314;28;129179;-71
2023/12/05 14:29:27;;;;;;;;;;;;;;;;;;5005184;28;107329;-73
2023/12/05 14:31:53;;;;;;;;;;;;;;;;;;4998223;28;127140;-73
2023/12/05 14:34:19;;;;;;;;;;;;;;;;;;5009815;28;130044;-72
2023/12/05 14:36:46;;;;;;;;;;;;;;;;;;5006892;28;128764;-72
2023/12/05 14:39:12;;;;;;;;;;;;;;;;;;5007507;28;129613;-73
2023/12/05 14:41:39;;;;;;;;;;;;;;;;;;5007452;28;123053;-73
2023/12/05 14:44:05;;;;;;;;;;;;;;;;;;5006967;28;128895;-73
2023/12/05 14:46:31;;;;;;;;;;;;;;;;;;5007993;28;129569;-73
2023/12/05 14:48:58;;;;;;;;;;;;;;;;;;5007362;28;115308;-72
2023/12/05 14:51:24;;;;;;;;;;;;;;;;;;5007634;28;129381;-72
2023/12/05 14:53:52;;;;;;;;;;;;;;;;;;5007636;28;128301;-72
2023/12/05 14:56:18;;;;;;;;;;;;;;;;;;5010595;28;120743;-72
2023/12/05 14:58:46;;;;;;;;;;;;;;;;;;5007690;28;130129;-72
2023/12/05 15:01:12;;;;;;;;;;;;;;;;;;5007802;28;123110;-71
2023/12/05 15:03:38;;;;;;;;;;;;;;;;;;5007091;28;130215;-72
2023/12/05 15:06:05;;;;;;;;;;;;;;;;;;5007219;28;129567;-72
2023/12/05 15:08:31;;;;;;;;;;;;;;;;;;5007258;28;122883;-72
2023/12/05 15:10:57;;;;;;;;;;;;;;;;;;5006840;28;127784;-72
2023/12/05 15:13:24;;;;;;;;;;;;;;;;;;5007927;28;112418;-72
2023/12/05 15:15:51;;;;;;;;;;;;;;;;;;5008581;28;99102;-72
2023/12/05 15:18:18;;;;;;;;;;;;;;;;;;5008716;28;129744;-72
2023/12/05 15:20:44;;;;;;;;;;;;;;;;;;5006991;28;123050;-72
2023/12/05 15:23:10;;;;;;;;;;;;;;;;;;5007448;28;129712;-72
2023/12/05 15:25:37;;;;;;;;;;;;;;;;;;5005914;28;121309;-72
2023/12/05 15:28:03;;;;;;;;;;;;;;;;;;4987385;28;121222;-72
2023/12/05 15:30:29;;;;;;;;;;;;;;;;;;4987480;28;129435;-72
2023/12/05 15:32:57;;;;;;;;;;;;;;;;;;4985832;28;129326;-73
2023/12/05 15:35:24;;;;;;;;;;;;;;;;;;4987070;28;125330;-72
2023/12/05 15:37:50;;;;;;;;;;;;;;;;;;4986949;28;129788;-72
2023/12/05 15:40:17;;;;;;;;;;;;;;;;;;4990366;28;98250;-73
2023/12/05 15:42:44;;;;;;;;;;;;;;;;;;4987342;28;129032;-72
2023/12/05 15:45:12;;;;;;;;;;;;;;;;;;4986198;28;130251;-72
2023/12/05 15:47:39;;;;;;;;;;;;;;;;;;4987424;28;123489;-72
2023/12/05 15:50:06;;;;;;;;;;;;;;;;;;4987295;28;123203;-72
2023/12/05 15:52:34;;;;;;;;;;;;;;;;;;4986251;28;130224;-72
2023/12/05 15:55:01;;;;;;;;;;;;;;;;;;4989051;28;123005;-74
2023/12/05 15:57:27;;;;;;;;;;;;;;;;;;5005515;28;128975;-72
2023/12/05 15:59:53;;;;;;;;;;;;;;;;;;5009429;28;129601;-72
2023/12/05 16:02:21;;;;;;;;;;;;;;;;;;5003962;28;128372;-72
2023/12/05 16:04:48;;;;;;;;;;;;;;;;;;4988736;28;129624;-72
2023/12/05 16:07:14;;;;;;;;;;;;;;;;;;5026141;28;120984;-72
2023/12/05 16:09:40;;;;;;;;;;;;;;;;;;4997337;28;128660;-71
2023/12/05 16:12:07;;;;;;;;;;;;;;;;;;5003128;28;130240;-71
2023/12/05 16:14:33;;;;;;;;;;;;;;;;;;5005986;28;122927;-71
2023/12/05 16:16:59;;;;;;;;;;;;;;;;;;5006343;28;129458;-72
2023/12/05 16:19:26;;;;;;;;;;;;;;;;;;5005293;28;130108;-71
2023/12/05 16:21:55;;;;;;;;;;;;;;;;;;5008698;28;112053;-72
2023/12/05 16:24:22;;;;;;;;;;;;;;;;;;5006987;28;130264;-72